createdAt,value
2023-03-23T15:58:47.251Z,16.77
2023-03-23T16:01:17.991Z,16.23
2023-03-23T16:03:52.294Z,17.10
2023-03-23T16:06:24.649Z,16.80
2023-03-23T16:08:53.582Z,17.77
2023-03-23T16:11:21.461Z,26.00
2023-03-23T16:13:48.155Z,19.00
2023-03-23T16:16:39.188Z,19.77
2023-03-23T16:19:06.552Z,16.83
2023-03-23T16:21:35.799Z,18.85
2023-03-23T16:24:02.487Z,19.52
2023-03-23T16:26:29.087Z,19.85
2023-03-23T16:29:06.052Z,20.75
2023-03-23T16:31:36.793Z,20.85
2023-03-23T16:34:04.004Z,21.35
2023-03-23T16:36:30.692Z,26.45
2023-03-23T16:38:57.336Z,30.13
2023-03-23T16:41:24.070Z,32.60
2023-03-23T16:43:51.426Z,32.17
2023-03-23T16:46:18.138Z,33.45
2023-03-23T16:48:44.924Z,32.42
2023-03-23T16:51:11.650Z,28.90
2023-03-23T16:53:38.387Z,28.77
2023-03-23T16:56:05.246Z,25.80
2023-03-23T16:58:31.933Z,25.17
2023-03-23T17:00:58.606Z,27.02
2023-03-23T17:03:25.350Z,27.50
2023-03-23T17:05:52.502Z,27.33
2023-03-23T17:08:21.277Z,26.42
2023-03-23T17:10:48.608Z,27.05
2023-03-23T17:13:15.542Z,26.73
2023-03-23T17:15:46.401Z,25.50
2023-03-23T17:18:14.875Z,26.60
2023-03-23T17:20:41.575Z,27.70
2023-03-23T17:23:08.562Z,28.73
2023-03-23T17:25:35.320Z,30.17
2023-03-23T17:28:16.652Z,29.20
2023-03-23T17:30:45.361Z,30.30
2023-03-23T17:33:13.348Z,30.60
2023-03-23T17:35:40.614Z,34.22
2023-03-23T17:38:07.262Z,32.08
2023-03-23T17:40:33.979Z,33.00
2023-03-23T17:43:00.658Z,39.58
2023-03-23T17:45:27.449Z,42.63
2023-03-23T17:47:54.296Z,33.95
2023-03-23T17:50:22.933Z,30.20
2023-03-23T17:52:50.040Z,30.17
2023-03-23T17:55:17.140Z,31.58
2023-03-23T17:57:44.917Z,24.45
2023-03-23T18:00:13.054Z,26.23
2023-03-23T18:02:39.732Z,25.40
2023-03-23T18:05:09.388Z,24.48
2023-03-23T18:07:36.945Z,23.05
2023-03-23T18:10:11.436Z,24.42
2023-03-23T18:12:39.816Z,23.35
2023-03-23T18:15:07.025Z,28.60
2023-03-23T18:17:33.699Z,25.10
2023-03-23T18:20:00.692Z,39.28
2023-03-23T18:22:27.406Z,27.90
2023-03-23T18:24:54.451Z,25.35
2023-03-23T18:27:21.140Z,26.20
2023-03-23T18:29:47.923Z,26.83
2023-03-23T18:32:14.527Z,25.52
2023-03-23T18:34:41.868Z,24.65
2023-03-23T18:37:08.710Z,22.95
2023-03-23T18:39:35.466Z,23.33
2023-03-23T18:42:02.098Z,22.63
2023-03-23T18:44:28.711Z,22.75
2023-03-23T18:46:55.374Z,21.15
2023-03-23T18:49:22.601Z,23.00
2023-03-23T18:51:49.305Z,21.33
2023-03-23T18:54:17.662Z,22.92
2023-03-23T18:56:44.754Z,21.98
2023-03-23T18:59:11.865Z,22.20
2023-03-23T19:01:38.709Z,22.33
2023-03-23T19:04:06.481Z,25.38
2023-03-23T19:06:35.170Z,23.98
2023-03-23T19:09:02.098Z,21.92
2023-03-23T19:11:28.951Z,21.98
2023-03-23T19:14:02.286Z,21.48
2023-03-23T19:16:34.122Z,22.90
2023-03-23T19:19:01.957Z,22.77
2023-03-23T19:21:31.513Z,22.75
2023-03-23T19:23:58.806Z,23.33
2023-03-23T19:26:37.644Z,24.25
2023-03-23T19:31:41.031Z,23.38
2023-03-23T19:34:08.854Z,25.10
2023-03-23T19:36:36.926Z,26.00
2023-03-23T19:39:05.003Z,26.15
2023-03-23T19:41:32.684Z,25.92
2023-03-23T19:43:59.798Z,26.27
2023-03-23T19:46:29.061Z,28.27
2023-03-23T19:48:57.079Z,27.13
2023-03-23T19:51:24.034Z,26.88
2023-03-23T19:53:51.409Z,27.75
2023-03-23T19:56:19.703Z,28.48
2023-03-23T19:58:47.035Z,28.80
2023-03-23T20:01:14.187Z,28.75
2023-03-23T20:03:42.227Z,30.67
2023-03-23T20:06:12.356Z,30.05
2023-03-23T20:08:47.708Z,30.58
2023-03-23T20:11:19.802Z,31.15
2023-03-23T20:13:48.883Z,31.40
2023-03-23T20:16:17.725Z,30.75
2023-03-23T20:18:46.450Z,30.67
2023-03-23T20:21:20.423Z,30.77
2023-03-23T20:23:47.625Z,28.95
2023-03-23T20:26:20.768Z,31.83
2023-03-23T20:28:49.067Z,31.48
2023-03-23T20:31:23.443Z,31.13
2023-03-23T20:33:59.962Z,30.45
2023-03-23T20:36:36.505Z,31.02
2023-03-23T20:39:10.781Z,31.88
2023-03-23T20:41:38.898Z,30.10
2023-03-23T20:44:07.659Z,32.50
2023-03-23T20:46:35.292Z,35.47
2023-03-23T20:49:02.702Z,32.05
2023-03-23T20:51:29.738Z,30.50
2023-03-23T20:53:56.323Z,31.45
2023-03-23T20:56:24.589Z,30.40
2023-03-23T20:58:52.094Z,33.33
2023-03-23T21:01:18.840Z,32.20
2023-03-23T21:03:45.789Z,32.63
2023-03-23T21:06:12.542Z,32.58
2023-03-23T21:08:40.841Z,32.10
2023-03-23T21:11:09.466Z,32.65
2023-03-23T21:13:36.530Z,32.90
2023-03-23T21:16:04.349Z,31.05
2023-03-23T21:18:31.367Z,31.30
2023-03-23T21:20:58.487Z,30.70
2023-03-23T21:23:26.875Z,32.15
2023-03-23T21:25:54.726Z,30.73
2023-03-23T21:28:22.168Z,31.65
2023-03-23T21:30:51.082Z,29.88
2023-03-23T21:33:17.663Z,30.75
2023-03-23T21:35:44.361Z,32.13
2023-03-23T21:38:19.949Z,30.35
2023-03-23T21:40:47.105Z,29.42
2023-03-23T21:43:14.187Z,30.42
2023-03-23T21:45:45.071Z,29.95
2023-03-23T21:48:12.854Z,28.63
2023-03-23T21:50:44.582Z,30.05
2023-03-23T21:53:12.937Z,28.60
2023-03-23T21:55:41.157Z,30.30
2023-03-23T21:58:09.797Z,27.80
2023-03-23T22:00:36.836Z,27.88
2023-03-23T22:03:04.815Z,28.15
2023-03-23T22:05:32.194Z,27.33
2023-03-23T22:07:59.017Z,26.52
2023-03-23T22:10:26.118Z,25.67
2023-03-23T22:12:55.398Z,26.90
2023-03-23T22:15:27.883Z,27.15
2023-03-23T22:17:55.251Z,26.35
2023-03-23T22:20:22.082Z,25.30
2023-03-23T22:22:49.037Z,24.95
2023-03-23T22:25:15.793Z,25.13
2023-03-23T22:27:42.937Z,26.70
2023-03-23T22:30:09.976Z,26.17
2023-03-23T22:32:36.887Z,23.60
2023-03-23T22:35:04.055Z,24.55
2023-03-23T22:37:31.017Z,24.23
2023-03-23T22:39:57.645Z,24.25
2023-03-23T22:42:24.342Z,24.42
2023-03-23T22:44:51.232Z,24.60
2023-03-23T22:47:18.095Z,23.60
2023-03-23T22:49:44.858Z,22.70
2023-03-23T22:52:11.627Z,21.55
2023-03-23T22:54:38.409Z,20.25
2023-03-23T22:57:05.602Z,22.02
2023-03-23T22:59:32.288Z,20.67
2023-03-23T23:01:58.990Z,19.63
2023-03-23T23:04:25.778Z,20.15
2023-03-23T23:07:02.991Z,21.58
2023-03-23T23:09:37.089Z,19.90
2023-03-23T23:12:04.001Z,20.48
2023-03-23T23:14:30.695Z,19.23
2023-03-23T23:16:57.921Z,18.67
2023-03-23T23:19:24.642Z,17.10
2023-03-23T23:21:51.409Z,19.02
2023-03-23T23:24:18.102Z,20.38
2023-03-23T23:26:45.161Z,17.65
2023-03-23T23:29:11.935Z,19.33
2023-03-23T23:31:38.628Z,17.13
2023-03-23T23:34:05.904Z,19.20
2023-03-23T23:36:33.140Z,17.10
2023-03-23T23:39:01.190Z,17.20
2023-03-23T23:41:30.312Z,16.67
2023-03-23T23:43:57.161Z,17.02
2023-03-23T23:46:24.119Z,15.82
2023-03-23T23:48:51.358Z,16.60
2023-03-23T23:51:18.175Z,16.48
2023-03-23T23:53:46.323Z,17.42
2023-03-23T23:56:13.784Z,16.23
2023-03-23T23:58:40.658Z,18.17
